createdAt,value
2022-10-05T00:01:46.330Z,95784.94
2022-10-05T00:04:15.822Z,95788.38
2022-10-05T00:06:44.201Z,95788.97
2022-10-05T00:09:14.069Z,95789.03
2022-10-05T00:11:40.535Z,95784.47
2022-10-05T00:14:19.213Z,95783.16
2022-10-05T00:16:46.716Z,95781.22
2022-10-05T00:19:21.602Z,95781.59
2022-10-05T00:21:48.165Z,95792.13
2022-10-05T00:24:18.963Z,95785.03
2022-10-05T00:26:45.823Z,95790.44
2022-10-05T00:29:23.003Z,95789.09
2022-10-05T00:31:50.285Z,95793.09
2022-10-05T00:34:17.139Z,95791.97
2022-10-05T00:36:44.384Z,95793.88
2022-10-05T00:39:11.273Z,95789.13
2022-10-05T00:42:00.309Z,95788.69
2022-10-05T00:44:40.398Z,95777.75
2022-10-05T00:47:14.742Z,95778.19
2022-10-05T00:49:52.281Z,95781.81
2022-10-05T00:52:40.678Z,95785.16
2022-10-05T00:55:30.352Z,95769.66
2022-10-05T00:58:10.427Z,95783.72
2022-10-05T01:00:40.060Z,95780.38
2022-10-05T01:03:26.200Z,95781.31
2022-10-05T01:06:16.204Z,95782.22
2022-10-05T01:09:25.333Z,95780.19
2022-10-05T01:12:14.075Z,95786.72
2022-10-05T01:14:43.604Z,95781.63
2022-10-05T01:17:25.030Z,95789.44
2022-10-05T01:20:04.686Z,95780.44
2022-10-05T01:22:56.166Z,95785.50
2022-10-05T01:25:34.896Z,95776.03
2022-10-05T01:28:15.835Z,95764.38
2022-10-05T01:31:08.689Z,95775.69
2022-10-05T01:33:53.797Z,95765.34
2022-10-05T01:36:49.332Z,95776.03
2022-10-05T01:39:15.941Z,95774.25
2022-10-05T01:41:54.813Z,95773.53
2022-10-05T01:44:26.167Z,95764.03
2022-10-05T01:47:00.192Z,95757.97
2022-10-05T01:49:29.856Z,95770.72
2022-10-05T01:52:14.592Z,95768.06
2022-10-05T01:54:58.681Z,95772.06
2022-10-05T01:57:59.312Z,95775.53
2022-10-05T02:00:26.614Z,95771.41
2022-10-05T02:03:19.245Z,95760.56
2022-10-05T02:05:56.369Z,95762.25
2022-10-05T02:08:37.076Z,95762.50
2022-10-05T02:11:09.428Z,95757.25
2022-10-05T02:13:50.108Z,95762.78
2022-10-05T02:16:43.103Z,95765.44
2022-10-05T02:19:30.996Z,95762.63
2022-10-05T02:22:07.789Z,95766.28
2022-10-05T02:24:39.944Z,95749.84
2022-10-05T02:27:08.485Z,95762.66
2022-10-05T02:29:37.460Z,95762.00
2022-10-05T02:32:07.224Z,95761.75
2022-10-05T02:34:39.577Z,95759.00
2022-10-05T02:37:36.180Z,95755.06
2022-10-05T02:40:08.839Z,95766.56
2022-10-05T02:42:58.733Z,95760.97
2022-10-05T02:45:47.224Z,95769.41
2022-10-05T02:48:51.746Z,95763.56
2022-10-05T02:51:23.219Z,95765.94
2022-10-05T02:54:08.327Z,95770.75
2022-10-05T02:56:40.747Z,95760.06
2022-10-05T02:59:30.449Z,95770.06
2022-10-05T03:02:24.520Z,95763.56
2022-10-05T03:05:17.290Z,95766.66
2022-10-05T03:07:56.271Z,95758.84
2022-10-05T03:10:38.182Z,95767.91
2022-10-05T03:13:09.718Z,95765.41
2022-10-05T03:16:17.955Z,95769.84
2022-10-05T03:19:09.130Z,95759.25
2022-10-05T03:21:57.642Z,95755.78
2022-10-05T03:24:27.403Z,95762.50
2022-10-05T03:27:06.131Z,95759.75
2022-10-05T03:29:42.127Z,95754.44
2022-10-05T03:32:21.142Z,95752.84
2022-10-05T03:34:50.611Z,95752.44
2022-10-05T03:37:27.097Z,95740.16
2022-10-05T03:40:09.012Z,95741.09
2022-10-05T03:42:50.757Z,95748.94
2022-10-05T03:45:20.338Z,95748.94
2022-10-05T03:47:56.651Z,95748.19
2022-10-05T03:50:48.882Z,95752.63
2022-10-05T03:53:18.882Z,95756.81
2022-10-05T03:56:03.090Z,95760.16
2022-10-05T03:58:38.687Z,95750.38
2022-10-05T04:01:09.244Z,95754.81
2022-10-05T04:03:40.467Z,95754.38
2022-10-05T04:06:23.158Z,95753.50
2022-10-05T04:09:03.007Z,95751.78
2022-10-05T04:11:35.465Z,95754.28
2022-10-05T04:14:10.338Z,95762.34
2022-10-05T04:16:48.661Z,95761.53
2022-10-05T04:19:21.424Z,95761.13
2022-10-05T04:22:10.634Z,95761.84
2022-10-05T04:24:40.823Z,95763.31
2022-10-05T04:27:19.920Z,95763.38
2022-10-05T04:30:01.107Z,95757.94
2022-10-05T04:32:42.162Z,95759.69
2022-10-05T04:35:46.283Z,95760.84
2022-10-05T04:38:28.172Z,95763.53
2022-10-05T04:41:03.823Z,95759.91
2022-10-05T04:43:38.912Z,95763.25
2022-10-05T04:46:39.205Z,95759.25
2022-10-05T04:49:36.949Z,95766.09
2022-10-05T04:52:15.123Z,95766.97
2022-10-05T04:54:56.674Z,95765.47
2022-10-05T04:57:35.832Z,95761.13
2022-10-05T05:00:12.648Z,95767.50
2022-10-05T05:02:48.994Z,95768.50
2022-10-05T05:05:27.535Z,95770.50
2022-10-05T05:07:54.425Z,95769.94
2022-10-05T05:10:39.350Z,95767.53
2022-10-05T05:13:40.575Z,95774.25
2022-10-05T05:16:43.202Z,95768.78
2022-10-05T05:19:47.436Z,95772.44
2022-10-05T05:22:55.659Z,95770.06
2022-10-05T05:25:35.913Z,95768.88
2022-10-05T05:28:16.883Z,95770.91
2022-10-05T05:30:53.235Z,95772.16
2022-10-05T05:33:44.059Z,95776.03
2022-10-05T05:36:23.518Z,95776.03
2022-10-05T05:38:56.096Z,95783.56
2022-10-05T05:41:31.016Z,95775.63
2022-10-05T05:44:24.079Z,95783.00
2022-10-05T05:47:04.072Z,95785.81
2022-10-05T05:49:54.559Z,95788.84
2022-10-05T05:52:44.528Z,95796.19
2022-10-05T05:55:24.382Z,95799.41
2022-10-05T05:58:04.445Z,95795.13
2022-10-05T06:00:37.745Z,95799.88
2022-10-05T06:03:39.646Z,95808.47
2022-10-05T06:06:32.899Z,95802.97
2022-10-05T06:09:01.457Z,95802.34
2022-10-05T06:11:58.529Z,95801.16
2022-10-05T06:14:40.135Z,95804.75
2022-10-05T06:17:12.420Z,95799.25
2022-10-05T06:19:39.447Z,95796.94
2022-10-05T06:22:19.641Z,95795.09
2022-10-05T06:24:45.984Z,95791.94
2022-10-05T06:27:21.374Z,95798.88
2022-10-05T06:29:48.011Z,95796.00
2022-10-05T06:32:24.392Z,95785.81
2022-10-05T06:34:57.679Z,95791.94
2022-10-05T06:37:52.328Z,95804.13
2022-10-05T06:40:37.346Z,95803.59
2022-10-05T06:43:21.360Z,95794.16
2022-10-05T06:46:00.138Z,95790.44
2022-10-05T06:48:52.896Z,95794.16
2022-10-05T06:51:31.512Z,95792.97
2022-10-05T06:54:23.005Z,95801.25
2022-10-05T06:56:58.930Z,95802.28
2022-10-05T06:59:33.246Z,95804.06
2022-10-05T07:02:27.831Z,95798.16
2022-10-05T07:05:23.300Z,95806.44
2022-10-05T07:08:08.226Z,95802.56
2022-10-05T07:10:40.693Z,95800.88
2022-10-05T07:13:25.872Z,95802.72
2022-10-05T07:16:10.709Z,95800.72
2022-10-05T07:19:01.803Z,95813.75
2022-10-05T07:21:42.047Z,95814.44
2022-10-05T07:24:17.636Z,95816.88
2022-10-05T07:26:54.989Z,95797.16
2022-10-05T07:29:59.212Z,95808.28
2022-10-05T07:32:33.528Z,95808.38
2022-10-05T07:35:09.427Z,95803.81
2022-10-05T07:37:49.827Z,95800.47
2022-10-05T07:40:40.215Z,95811.25
2022-10-05T07:43:45.200Z,95807.22
2022-10-05T07:46:52.233Z,95811.78
2022-10-05T07:49:34.195Z,95810.28
2022-10-05T07:52:12.323Z,95819.31
2022-10-05T07:54:52.726Z,95819.34
2022-10-05T07:57:44.100Z,95809.47
2022-10-05T08:00:15.283Z,95809.56
2022-10-05T08:02:52.556Z,95802.19
2022-10-05T08:05:24.747Z,95815.97
2022-10-05T08:07:57.034Z,95811.50
2022-10-05T08:10:47.329Z,95811.91
2022-10-05T08:13:21.737Z,95813.88
2022-10-05T08:15:53.125Z,95809.75
2022-10-05T08:18:45.835Z,95814.28
2022-10-05T08:21:13.876Z,95809.34
2022-10-05T08:23:49.188Z,95805.66
2022-10-05T08:26:29.229Z,95807.38
2022-10-05T08:29:04.439Z,95827.13
2022-10-05T08:31:35.844Z,95822.22
2022-10-05T08:34:07.286Z,95813.88
2022-10-05T08:36:53.836Z,95817.25
2022-10-05T08:39:21.788Z,95811.91
2022-10-05T08:41:55.057Z,95814.75
2022-10-05T08:44:48.959Z,95820.84
2022-10-05T08:47:38.553Z,95825.06
2022-10-05T08:50:45.335Z,95818.09
2022-10-05T08:53:49.476Z,95823.81
2022-10-05T08:56:30.242Z,95823.75
2022-10-05T08:59:01.900Z,95829.25
2022-10-05T09:01:49.791Z,95828.44
2022-10-05T09:04:32.953Z,95832.19
2022-10-05T09:07:38.148Z,95837.69
2022-10-05T09:10:23.289Z,95839.69
2022-10-05T09:12:58.820Z,95836.78
2022-10-05T09:15:56.451Z,95838.78
2022-10-05T09:18:50.962Z,95841.38
2022-10-05T09:21:35.290Z,95836.28
2022-10-05T09:24:13.965Z,95837.81
2022-10-05T09:27:00.163Z,95837.34
2022-10-05T09:29:32.737Z,95836.94
2022-10-05T09:32:15.592Z,95836.03
2022-10-05T09:34:54.848Z,95832.97
2022-10-05T09:37:49.400Z,95832.66
2022-10-05T09:40:53.550Z,95829.09
2022-10-05T09:44:05.151Z,95829.34
2022-10-05T09:47:25.112Z,95827.31
2022-10-05T09:50:16.277Z,95828.53
2022-10-05T09:52:48.437Z,95826.50
2022-10-05T09:55:35.039Z,95823.44
2022-10-05T09:58:13.240Z,95820.44
2022-10-05T10:01:08.955Z,95820.69
2022-10-05T10:03:59.993Z,95814.06
2022-10-05T10:06:48.306Z,95806.91
2022-10-05T10:09:28.528Z,95810.13
2022-10-05T10:12:14.858Z,95798.31
2022-10-05T10:15:11.902Z,95805.22
2022-10-05T10:18:00.817Z,95802.25
2022-10-05T10:20:36.219Z,95807.34
2022-10-05T10:23:10.093Z,95802.38
2022-10-05T10:26:10.601Z,95812.44
2022-10-05T10:29:15.088Z,95809.63
2022-10-05T10:31:50.903Z,95806.47
2022-10-05T10:35:07.616Z,95809.47
2022-10-05T10:37:53.790Z,95807.94
2022-10-05T10:40:43.761Z,95805.66
2022-10-05T10:43:49.108Z,95800.28
2022-10-05T10:46:21.006Z,95806.00
2022-10-05T10:49:35.675Z,95810.31
2022-10-05T10:52:05.661Z,95804.69
2022-10-05T10:54:36.710Z,95802.56
2022-10-05T10:57:12.111Z,95800.72
2022-10-05T11:00:00.434Z,95801.75
2022-10-05T11:02:59.082Z,95798.22
2022-10-05T11:06:16.920Z,95799.28
2022-10-05T11:08:52.577Z,95808.00
2022-10-05T11:11:31.111Z,95806.41
2022-10-05T11:14:02.008Z,95803.78
2022-10-05T11:16:40.499Z,95803.75
2022-10-05T11:19:40.542Z,95803.25
2022-10-05T11:22:31.287Z,95800.63
2022-10-05T11:25:31.341Z,95790.03
2022-10-05T11:28:09.052Z,95787.25
2022-10-05T11:30:54.714Z,95792.94
2022-10-05T11:34:00.076Z,95795.34
2022-10-05T11:37:05.651Z,95790.66
2022-10-05T11:39:41.075Z,95790.72
2022-10-05T11:42:46.439Z,95787.31
2022-10-05T11:45:21.471Z,95779.00
2022-10-05T11:48:15.246Z,95770.75
2022-10-05T11:51:16.003Z,95778.38
2022-10-05T11:54:14.270Z,95759.44
2022-10-05T11:56:57.146Z,95761.19
2022-10-05T11:59:29.610Z,95766.22
2022-10-05T12:02:22.659Z,95760.53
2022-10-05T12:05:14.463Z,95762.28
2022-10-05T12:07:47.829Z,95758.47
2022-10-05T12:10:30.827Z,95752.31
2022-10-05T12:12:57.532Z,95760.72
2022-10-05T12:15:29.594Z,95753.97
2022-10-05T12:18:02.058Z,95747.00
2022-10-05T12:20:39.243Z,95745.53
2022-10-05T12:23:28.305Z,95746.44
2022-10-05T12:26:07.873Z,95744.56
2022-10-05T12:28:48.586Z,95738.13
2022-10-05T12:31:36.132Z,95736.59
2022-10-05T12:34:24.036Z,95733.59
2022-10-05T12:37:10.296Z,95730.56
2022-10-05T12:40:04.175Z,95718.41
2022-10-05T12:43:00.058Z,95734.84
2022-10-05T12:45:36.769Z,95725.50
2022-10-05T12:48:37.248Z,95725.25
2022-10-05T12:51:26.345Z,95727.72
2022-10-05T12:54:08.954Z,95720.44
2022-10-05T12:56:51.625Z,95720.44
2022-10-05T12:59:47.085Z,95733.06
2022-10-05T13:02:25.968Z,95725.81
2022-10-05T13:05:23.567Z,95723.13
2022-10-05T13:08:08.620Z,95727.41
2022-10-05T13:11:01.855Z,95730.63
2022-10-05T13:13:46.226Z,95723.13
2022-10-05T13:16:18.905Z,95731.19
2022-10-05T13:19:14.236Z,95727.44
2022-10-05T13:21:46.802Z,95730.66
2022-10-05T13:24:25.875Z,95722.31
2022-10-05T13:26:53.885Z,95736.00
2022-10-05T13:29:38.527Z,95720.16
2022-10-05T13:32:24.989Z,95720.16
2022-10-05T13:35:16.793Z,95729.56
2022-10-05T13:38:02.228Z,95730.63
2022-10-05T13:40:34.762Z,95726.34
2022-10-05T13:43:07.280Z,95731.72
2022-10-05T13:46:04.769Z,95722.81
2022-10-05T13:48:47.973Z,95712.34
2022-10-05T13:51:40.773Z,95715.81
2022-10-05T13:54:30.388Z,95716.59
2022-10-05T13:56:59.182Z,95720.06
2022-10-05T13:59:53.691Z,95715.78
2022-10-05T14:02:35.980Z,95718.22
2022-10-05T14:05:18.579Z,95711.97
2022-10-05T14:07:51.051Z,95703.63
2022-10-05T14:10:39.383Z,95712.78
2022-10-05T14:13:23.900Z,95716.28
2022-10-05T14:16:00.968Z,95721.66
2022-10-05T14:18:28.984Z,95709.00
2022-10-05T14:21:01.927Z,95715.69
2022-10-05T14:23:29.301Z,95714.38
2022-10-05T14:25:56.237Z,95714.91
2022-10-05T14:28:22.697Z,95714.06
2022-10-05T14:31:16.414Z,95707.28
2022-10-05T14:33:43.542Z,95706.19
2022-10-05T14:36:33.606Z,95694.09
2022-10-05T14:39:01.481Z,95702.50
2022-10-05T14:41:28.876Z,95707.88
2022-10-05T14:44:05.627Z,95706.28
2022-10-05T14:46:32.954Z,95697.31
2022-10-05T14:49:18.346Z,95698.66
2022-10-05T14:51:44.842Z,95701.94
2022-10-05T14:54:25.486Z,95700.09
2022-10-05T14:57:05.928Z,95695.56
2022-10-05T14:59:54.512Z,95707.41
2022-10-05T15:02:45.316Z,95699.31
2022-10-05T15:05:27.853Z,95711.63
2022-10-05T15:08:00.053Z,95704.88
2022-10-05T15:10:32.450Z,95700.59
2022-10-05T15:13:11.465Z,95700.00
2022-10-05T15:15:47.146Z,95701.59
2022-10-05T15:18:32.475Z,95700.28
2022-10-05T15:21:11.236Z,95701.66
2022-10-05T15:23:40.530Z,95699.50
2022-10-05T15:26:22.439Z,95704.91
2022-10-05T15:29:24.740Z,95703.56
2022-10-05T15:32:21.344Z,95705.97
2022-10-05T15:35:14.787Z,95705.13
2022-10-05T15:37:54.431Z,95702.19
2022-10-05T15:40:28.807Z,95711.88
2022-10-05T15:43:03.519Z,95711.16
2022-10-05T15:45:34.135Z,95724.06
2022-10-05T15:48:08.307Z,95706.81
2022-10-05T15:50:40.226Z,95718.03
2022-10-05T15:53:15.946Z,95721.28
2022-10-05T15:55:49.332Z,95713.78
2022-10-05T15:58:55.381Z,95720.22
2022-10-05T16:01:31.171Z,95725.59
2022-10-05T16:04:24.611Z,95706.31
2022-10-05T16:06:58.346Z,95723.25
2022-10-05T16:09:33.757Z,95726.47
2022-10-05T16:12:06.585Z,95732.75
2022-10-05T16:14:48.626Z,95734.41
2022-10-05T16:18:06.522Z,95733.63
2022-10-05T16:20:53.415Z,95731.72
2022-10-05T16:23:32.271Z,95729.31
2022-10-05T16:26:04.626Z,95738.16
2022-10-05T16:29:01.148Z,95743.00
2022-10-05T16:31:54.645Z,95739.25
2022-10-05T16:34:24.312Z,95748.41
2022-10-05T16:37:23.656Z,95751.09
2022-10-05T16:40:28.781Z,95748.41
2022-10-05T16:43:23.427Z,95748.41
2022-10-05T16:46:02.466Z,95760.75
2022-10-05T16:48:33.526Z,95762.09
2022-10-05T16:51:08.750Z,95765.03
2022-10-05T16:53:41.600Z,95753.19
2022-10-05T16:56:18.066Z,95764.47
2022-10-05T16:59:06.310Z,95762.75
2022-10-05T17:01:58.387Z,95764.56
2022-10-05T17:04:59.051Z,95770.75
2022-10-05T17:07:46.538Z,95773.63
2022-10-05T17:10:27.960Z,95779.03
2022-10-05T17:12:54.627Z,95779.72
2022-10-05T17:15:31.786Z,95775.09
2022-10-05T17:18:46.465Z,95782.31
2022-10-05T17:21:27.665Z,95793.91
2022-10-05T17:23:58.694Z,95799.88
2022-10-05T17:26:54.142Z,95802.28
2022-10-05T17:29:45.965Z,95813.22
2022-10-05T17:32:35.681Z,95816.66
2022-10-05T17:35:19.297Z,95818.53
2022-10-05T17:38:09.929Z,95820.13
2022-10-05T17:40:38.524Z,95826.50
2022-10-05T17:43:25.660Z,95826.25
2022-10-05T17:45:55.588Z,95831.16
2022-10-05T17:48:42.101Z,95828.69
2022-10-05T17:51:38.050Z,95822.22
2022-10-05T17:54:31.838Z,95836.41
2022-10-05T17:56:58.200Z,95833.09
2022-10-05T17:59:43.271Z,95842.88
2022-10-05T18:02:19.269Z,95838.84
2022-10-05T18:05:05.477Z,95831.09
2022-10-05T18:07:37.922Z,95846.00
2022-10-05T18:10:10.484Z,95852.16
2022-10-05T18:12:36.871Z,95850.81
2022-10-05T18:15:06.503Z,95865.56
2022-10-05T18:17:46.265Z,95870.88
2022-10-05T18:20:18.019Z,95877.53
2022-10-05T18:22:48.784Z,95885.78
2022-10-05T18:25:36.528Z,95881.63
2022-10-05T18:28:15.116Z,95886.72
2022-10-05T18:31:20.513Z,95892.34
2022-10-05T18:33:50.012Z,95893.00
2022-10-05T18:36:28.016Z,95898.47
2022-10-05T18:39:13.397Z,95897.53
2022-10-05T18:42:05.486Z,95903.34
2022-10-05T18:44:39.609Z,95910.84
2022-10-05T18:47:11.329Z,95926.16
2022-10-05T18:49:59.565Z,95926.97
2022-10-05T18:52:51.096Z,95931.38
2022-10-05T18:55:36.059Z,95942.94
2022-10-05T18:58:26.296Z,95935.84
2022-10-05T19:01:13.879Z,95950.34
2022-10-05T19:03:51.550Z,95952.63
2022-10-05T19:06:30.970Z,95951.25
2022-10-05T19:09:18.807Z,95955.16
2022-10-05T19:11:51.162Z,95968.75
2022-10-05T19:14:46.869Z,95963.84
2022-10-05T19:17:13.299Z,95970.16
2022-10-05T19:19:59.978Z,95971.69
2022-10-05T19:22:44.106Z,95980.03
2022-10-05T19:25:53.922Z,95972.81
2022-10-05T19:28:23.156Z,95987.09
2022-10-05T19:31:03.108Z,95986.28
2022-10-05T19:33:29.520Z,95984.16
2022-10-05T19:36:12.706Z,95981.47
2022-10-05T19:39:17.628Z,95983.25
2022-10-05T19:42:03.390Z,95991.44
2022-10-05T19:44:54.583Z,95996.28
2022-10-05T19:47:29.768Z,95996.00
2022-10-05T19:49:56.323Z,95994.31
2022-10-05T19:52:28.214Z,95990.50
2022-10-05T19:55:06.952Z,96000.84
2022-10-05T19:57:33.475Z,96003.53
2022-10-05T20:00:01.154Z,96008.66
2022-10-05T20:02:28.297Z,96019.47
2022-10-05T20:05:06.042Z,96018.81
2022-10-05T20:07:35.275Z,96013.63
2022-10-05T20:10:28.554Z,96014.88
2022-10-05T20:12:59.217Z,96020.38
2022-10-05T20:15:33.671Z,96031.72
2022-10-05T20:18:38.005Z,96024.22
2022-10-05T20:21:04.587Z,96025.13
2022-10-05T20:23:32.199Z,96028.94
2022-10-05T20:25:58.644Z,96042.88
2022-10-05T20:28:32.168Z,96048.66
2022-10-05T20:30:59.581Z,96046.41
2022-10-05T20:33:26.901Z,96043.19
2022-10-05T20:35:53.367Z,96041.06
2022-10-05T20:38:20.550Z,96059.78
2022-10-05T20:40:47.240Z,96049.56
2022-10-05T20:43:13.893Z,96052.09
2022-10-05T20:45:40.743Z,96059.56
2022-10-05T20:48:07.432Z,96071.50
2022-10-05T20:50:34.054Z,96081.00
2022-10-05T20:53:01.029Z,96077.09
2022-10-05T20:55:27.489Z,96090.69
2022-10-05T20:57:54.088Z,96092.31
2022-10-05T21:00:20.534Z,96095.34
2022-10-05T21:02:47.022Z,96099.44
2022-10-05T21:05:13.586Z,96101.50
2022-10-05T21:07:40.294Z,96108.16
2022-10-05T21:10:07.252Z,96107.91
2022-10-05T21:12:33.738Z,96116.75
2022-10-05T21:15:00.380Z,96116.41
2022-10-05T21:17:27.046Z,96120.56
2022-10-05T21:19:53.544Z,96116.41
2022-10-05T21:22:20.101Z,96126.97
2022-10-05T21:24:46.736Z,96122.19
2022-10-05T21:27:13.375Z,96132.53
2022-10-05T21:29:40.165Z,96125.44
2022-10-05T21:32:07.134Z,96128.84
2022-10-05T21:34:33.639Z,96121.03
2022-10-05T21:37:00.436Z,96129.03
2022-10-05T21:39:26.939Z,96129.03
2022-10-05T21:41:53.408Z,96124.53
2022-10-05T21:44:20.036Z,96126.75
2022-10-05T21:46:46.957Z,96118.50
2022-10-05T21:49:16.190Z,96134.75
2022-10-05T21:51:46.358Z,96134.84
2022-10-05T21:54:15.675Z,96128.72
2022-10-05T21:56:47.027Z,96132.44
2022-10-05T21:59:15.248Z,96128.84
2022-10-05T22:01:41.908Z,96129.28
2022-10-05T22:04:08.371Z,96120.72
2022-10-05T22:06:35.610Z,96127.56
2022-10-05T22:09:03.305Z,96128.00
2022-10-05T22:11:29.932Z,96123.84
2022-10-05T22:13:56.426Z,96138.34
2022-10-05T22:16:23.927Z,96134.19
2022-10-05T22:18:50.423Z,96142.19
2022-10-05T22:21:17.082Z,96139.03
2022-10-05T22:23:45.071Z,96147.97
2022-10-05T22:26:13.640Z,96139.97
2022-10-05T22:28:40.945Z,96144.88
2022-10-05T22:31:08.210Z,96139.03
2022-10-05T22:33:34.693Z,96143.81
2022-10-05T22:36:01.189Z,96148.69
2022-10-05T22:38:28.515Z,96149.59
2022-10-05T22:40:58.175Z,96150.09
2022-10-05T22:43:24.888Z,96143.13
2022-10-05T22:45:51.538Z,96147.53
2022-10-05T22:48:18.257Z,96141.03
2022-10-05T22:50:45.670Z,96147.75
2022-10-05T22:53:12.637Z,96152.88
2022-10-05T22:55:39.242Z,96145.56
2022-10-05T22:58:05.773Z,96160.16
2022-10-05T23:00:56.562Z,96162.38
2022-10-05T23:03:19.086Z,96164.56
2022-10-05T23:05:45.573Z,96165.16
2022-10-05T23:08:12.036Z,96165.63
2022-10-05T23:10:38.534Z,96156.44
2022-10-05T23:13:05.006Z,96156.88
2022-10-05T23:15:31.551Z,96168.16
2022-10-05T23:17:58.195Z,96161.25
2022-10-05T23:20:24.696Z,96169.16
2022-10-05T23:22:51.311Z,96164.84
2022-10-05T23:25:17.949Z,96167.97
2022-10-05T23:27:44.792Z,96177.13
2022-10-05T23:30:11.969Z,96166.94
2022-10-05T23:32:39.670Z,96175.03
2022-10-05T23:35:07.459Z,96177.25
2022-10-05T23:37:39.998Z,96166.94
2022-10-05T23:40:07.603Z,96184.69
2022-10-05T23:42:34.886Z,96185.28
2022-10-05T23:45:01.521Z,96179.59
2022-10-05T23:47:28.161Z,96187.31
2022-10-05T23:49:54.647Z,96193.34
2022-10-05T23:52:21.283Z,96201.25
2022-10-05T23:54:48.167Z,96205.53
2022-10-05T23:57:18.189Z,96203.91
2022-10-05T23:59:45.402Z,96202.03
